Time;durP1;ratioP1;P1;durP2;ratioP2;P2;SDS_P1;SDS_P2;PMS_P1;PMS_P2;Temp;Humidity;BMP_temperature;BMP_pressure;BME280_temperature;BME280_humidity;BME280_pressure;Samples;Min_cycle;Max_cycle;Signal;HPM_P1;HPM_P2
2022/01/08 00:00:46;;;;;;;75.28;27.48;;;-2.60;70.10;;;;;;5054129;28;20037;-69
2022/01/08 00:03:15;;;;;;;49.47;20.75;;;-2.60;70.00;;;;;;5053007;28;20124;-69
2022/01/08 00:06:20;;;;;;;55.88;22.92;;;-2.60;70.10;;;;;;5054115;28;20094;-69
2022/01/08 00:08:58;;;;;;;44.25;17.27;;;-2.60;70.10;;;;;;5036585;28;20121;-69
2022/01/08 00:11:27;;;;;;;29.00;9.02;;;-2.70;70.00;;;;;;5072473;28;20110;-69
2022/01/08 00:14:16;;;;;;;23.90;9.93;;;-2.80;70.00;;;;;;5054609;28;20049;-69
2022/01/08 00:17:27;;;;;;;35.25;14.50;;;-2.90;69.90;;;;;;5063320;28;20052;-69
2022/01/08 00:20:23;;;;;;;38.05;16.40;;;-2.90;69.90;;;;;;5054484;28;20045;-69
2022/01/08 00:23:11;;;;;;;42.97;18.00;;;-2.90;69.80;;;;;;5051121;28;20049;-69
2022/01/08 00:25:46;;;;;;;45.90;19.30;;;-2.90;70.00;;;;;;5071983;28;20047;-69
2022/01/08 00:28:19;;;;;;;67.43;26.23;;;-2.90;70.20;;;;;;5054450;28;20044;-69
2022/01/08 00:30:49;;;;;;;95.97;35.60;;;-2.90;69.90;;;;;;5069476;28;20047;-70
2022/01/08 00:33:20;;;;;;;75.22;30.95;;;-2.90;70.00;;;;;;5054301;28;20061;-69
2022/01/08 00:35:47;;;;;;;31.80;12.55;;;-2.90;69.90;;;;;;5036107;28;20064;-70
2022/01/08 00:38:16;;;;;;;17.83;7.80;;;-3.00;69.80;;;;;;5052830;28;20115;-70
2022/01/08 00:41:11;;;;;;;23.23;8.40;;;-2.90;69.90;;;;;;5053007;28;20028;-69
2022/01/08 00:43:57;;;;;;;16.95;7.50;;;-3.00;70.00;;;;;;5054118;28;20465;-70
2022/01/08 00:46:32;;;;;;;18.40;7.78;;;-3.10;70.00;;;;;;5053657;28;20040;-69
2022/01/08 00:49:05;;;;;;;29.23;11.30;;;-3.10;70.00;;;;;;5054078;28;20044;-70
2022/01/08 00:51:44;;;;;;;22.08;11.13;;;-3.20;69.80;;;;;;5051830;28;20136;-70
2022/01/08 00:54:10;;;;;;;;;;;-3.20;69.80;;;;;;5059051;28;20378;-70
2022/01/08 00:56:39;;;;;;;26.00;9.88;;;-3.20;69.70;;;;;;5065742;28;19927;-69
2022/01/08 00:59:06;;;;;;;21.10;9.10;;;-3.30;69.50;;;;;;5055842;28;20048;-70
2022/01/08 01:01:42;;;;;;;;;;;-3.40;69.60;;;;;;5053281;28;20056;-69
2022/01/08 01:04:09;;;;;;;31.00;10.05;;;-3.30;69.70;;;;;;5052578;28;20012;-69
2022/01/08 01:06:53;;;;;;;23.48;10.82;;;-3.40;69.50;;;;;;5053584;28;20055;-68
2022/01/08 01:09:19;;;;;;;39.72;17.00;;;-3.40;69.50;;;;;;5051002;28;20036;-70
2022/01/08 01:11:55;;;;;;;40.60;16.00;;;-3.40;69.50;;;;;;5066905;28;20106;-69
2022/01/08 01:14:22;;;;;;;26.52;11.18;;;-3.40;69.40;;;;;;5054251;28;20082;-69
2022/01/08 01:16:54;;;;;;;28.05;10.85;;;-3.40;69.30;;;;;;5051661;28;20045;-70
2022/01/08 01:19:23;;;;;;;25.02;10.93;;;-3.40;69.40;;;;;;5068677;28;20075;-69
2022/01/08 01:21:53;;;;;;;31.50;11.25;;;-3.50;69.50;;;;;;5052817;28;20528;-69
2022/01/08 01:24:25;;;;;;;29.10;12.27;;;-3.50;69.50;;;;;;5069145;28;20032;-70
2022/01/08 01:47:11;;;;;;;51.15;20.55;;;-3.80;70.40;;;;;;5052417;28;20409;-70
2022/01/08 01:49:57;;;;;;;71.85;28.08;;;-3.80;69.40;;;;;;5059814;28;20060;-69
2022/01/08 01:52:24;;;;;;;27.08;11.32;;;-3.80;69.40;;;;;;5057244;28;20148;-70
2022/01/08 01:55:04;;;;;;;20.35;8.70;;;-3.80;69.20;;;;;;5045550;28;20485;-69
2022/01/08 01:57:31;;;;;;;14.50;6.47;;;-3.80;69.20;;;;;;5055767;28;20047;-70
2022/01/08 02:00:16;;;;;;;18.88;6.75;;;-3.90;69.10;;;;;;5053142;28;20037;-68
2022/01/08 02:03:01;;;;;;;16.30;6.68;;;-4.00;69.20;;;;;;5051528;28;20052;-69
2022/01/08 02:05:40;;;;;;;127.82;43.40;;;-4.00;69.20;;;;;;5050761;28;20388;-69
2022/01/08 02:08:09;;;;;;;97.97;36.20;;;-4.10;69.30;;;;;;5051387;28;20450;-69
2022/01/08 02:11:03;;;;;;;36.63;14.95;;;-4.20;69.10;;;;;;5051663;28;20499;-69
2022/01/08 02:13:32;;;;;;;31.95;12.02;;;-4.20;69.20;;;;;;5067813;28;20036;-70
2022/01/08 02:16:01;;;;;;;19.55;8.45;;;-4.20;69.10;;;;;;5063297;28;20068;-69
2022/01/08 02:18:34;;;;;;;21.90;9.73;;;-4.20;69.00;;;;;;5051408;28;20086;-70
2022/01/08 02:21:02;;;;;;;27.60;12.13;;;-4.20;68.80;;;;;;5053174;28;20119;-69
2022/01/08 02:23:30;;;;;;;25.75;10.73;;;-4.20;68.80;;;;;;5061060;28;20082;-68
2022/01/08 02:26:19;;;;;;;20.50;10.80;;;-4.10;68.90;;;;;;5073015;28;20123;-68
2022/01/08 02:28:46;;;;;;;27.63;12.23;;;-4.20;68.70;;;;;;5070943;28;20118;-69
2022/01/08 02:31:22;;;;;;;;;;;-4.10;68.90;;;;;;5062238;28;20069;-69
2022/01/08 02:33:49;;;;;;;26.38;10.25;;;-4.20;68.60;;;;;;5056102;28;19925;-68
2022/01/08 02:36:16;;;;;;;30.00;12.73;;;-4.20;68.10;;;;;;5049718;28;20060;-69
2022/01/08 02:38:43;;;;;;;30.02;15.13;;;-4.20;68.80;;;;;;5071323;28;20440;-70
2022/01/08 02:41:15;;;;;;;34.05;14.13;;;-4.20;68.70;;;;;;5053276;28;20036;-70
2022/01/08 02:43:52;;;;;;;36.42;16.27;;;-4.20;68.90;;;;;;5071029;28;20091;-69
2022/01/08 02:46:55;;;;;;;39.17;16.67;;;-4.10;69.10;;;;;;5072010;28;20041;-69
2022/01/08 02:49:52;;;;;;;32.65;13.82;;;-4.20;68.90;;;;;;5053597;28;20041;-69
2022/01/08 02:52:18;;;;;;;36.10;16.42;;;-4.20;68.80;;;;;;5069164;28;20159;-69
2022/01/08 02:54:45;;;;;;;40.22;17.90;;;-4.20;68.40;;;;;;5054579;28;20485;-69
2022/01/08 02:57:11;;;;;;;46.42;19.20;;;-4.20;69.10;;;;;;5058454;28;20033;-69
2022/01/08 03:00:01;;;;;;;38.25;14.68;;;-4.10;69.20;;;;;;5072123;28;20082;-68
2022/01/08 03:02:27;;;;;;;33.90;13.60;;;-4.10;69.10;;;;;;5071044;28;20401;-69
2022/01/08 03:04:58;;;;;;;30.90;13.77;;;-4.10;69.30;;;;;;5064188;28;20389;-70
2022/01/08 03:07:24;;;;;;;30.83;12.55;;;-4.10;69.10;;;;;;5046667;28;20366;-70
2022/01/08 03:09:56;;;;;;;;;;;-4.10;69.30;;;;;;5063861;28;20037;-69
2022/01/08 03:12:30;;;;;;;39.55;17.05;;;-4.10;69.30;;;;;;5054386;28;20000;-70
2022/01/08 03:14:59;;;;;;;32.60;14.82;;;-4.20;69.10;;;;;;5055810;28;20440;-70
2022/01/08 03:17:27;;;;;;;28.17;11.63;;;-4.20;69.20;;;;;;5065266;28;20120;-70
2022/01/08 03:19:59;;;;;;;31.42;11.45;;;-4.20;69.30;;;;;;5060328;28;20393;-69
2022/01/08 03:22:43;;;;;;;21.95;10.57;;;-4.10;69.40;;;;;;5055211;28;20040;-70
2022/01/08 03:25:16;;;;;;;24.75;10.52;;;-4.20;69.20;;;;;;5055217;28;20036;-70
2022/01/08 03:27:42;;;;;;;24.95;12.35;;;-4.20;69.10;;;;;;5067160;28;20497;-70
2022/01/08 03:30:12;;;;;;;29.95;12.00;;;-4.20;69.30;;;;;;5038436;28;20036;-69
2022/01/08 03:32:42;;;;;;;22.65;10.00;;;-4.20;69.20;;;;;;5068420;28;20527;-70
2022/01/08 03:35:09;;;;;;;24.42;11.05;;;-4.20;68.80;;;;;;5067686;28;20040;-68
2022/01/08 03:37:38;;;;;;;27.60;10.38;;;-4.20;69.40;;;;;;5069891;28;20037;-69
2022/01/08 03:40:22;;;;;;;22.20;9.73;;;-4.20;68.70;;;;;;5069696;28;20067;-69
2022/01/08 03:42:53;;;;;;;23.20;10.63;;;-4.20;69.20;;;;;;5070494;28;20049;-70
2022/01/08 03:45:23;;;;;;;24.63;10.43;;;-4.20;69.30;;;;;;5055534;28;20037;-69
2022/01/08 03:50:22;;;;;;;25.02;10.65;;;-4.20;69.20;;;;;;5053302;28;20040;-70
2022/01/08 03:52:50;;;;;;;24.85;10.00;;;-4.20;69.10;;;;;;5052862;28;20554;-69
2022/01/08 03:55:29;;;;;;;27.38;9.20;;;-4.30;69.20;;;;;;5054511;28;20032;-70
2022/01/08 03:58:25;;;;;;;23.38;10.02;;;-4.20;69.10;;;;;;5055225;28;20033;-70
2022/01/08 04:00:57;;;;;;;26.42;8.80;;;-4.30;69.10;;;;;;5054427;28;20060;-69
2022/01/08 04:03:30;;;;;;;29.30;10.55;;;-4.20;69.20;;;;;;5053134;28;20055;-69
2022/01/08 04:05:56;;;;;;;23.90;8.27;;;-4.20;69.20;;;;;;5063714;28;20060;-69
2022/01/08 04:08:25;;;;;;;;;;;-4.20;69.20;;;;;;5062948;28;20077;-70
2022/01/08 04:11:14;;;;;;;18.55;7.38;;;-4.20;69.00;;;;;;5054011;28;19927;-69
2022/01/08 04:13:42;;;;;;;15.48;6.28;;;-4.30;69.00;;;;;;5053294;28;20037;-70
2022/01/08 04:16:22;;;;;;;18.63;6.63;;;-4.30;69.20;;;;;;5054100;28;20037;-70
2022/01/08 04:18:49;;;;;;;18.00;5.95;;;-4.30;69.20;;;;;;5054227;28;20052;-70
2022/01/08 04:21:58;;;;;;;;;;;-4.30;69.30;;;;;;5055200;28;20060;-69
2022/01/08 04:24:07;;;;;;;;;;;-4.30;69.20;;;;;;5052652;28;20351;-69
2022/01/08 04:27:17;;;;;;;14.63;6.90;;;-4.30;69.10;;;;;;5052062;28;20365;-70
2022/01/08 04:29:46;;;;;;;11.40;5.38;;;-4.40;69.00;;;;;;5042006;28;20048;-69
2022/01/08 04:32:15;;;;;;;12.82;5.47;;;-4.40;69.10;;;;;;5064675;28;20049;-70
2022/01/08 04:34:42;;;;;;;13.77;5.63;;;-4.40;69.20;;;;;;5049910;28;20492;-71
2022/01/08 04:37:12;;;;;;;14.95;6.20;;;-4.30;69.40;;;;;;5056899;28;20064;-69
2022/01/08 04:39:44;;;;;;;12.80;5.43;;;-4.40;69.30;;;;;;5064150;28;20045;-70
2022/01/08 04:42:14;;;;;;;13.48;6.32;;;-4.30;69.50;;;;;;5053232;28;20032;-70
2022/01/08 04:44:44;;;;;;;20.00;9.52;;;-4.40;69.30;;;;;;5051824;28;20037;-70
2022/01/08 04:47:12;;;;;;;26.20;10.35;;;-4.30;69.40;;;;;;5060810;28;20044;-70
2022/01/08 04:52:35;;;;;;;28.23;10.10;;;-4.40;68.80;;;;;;5052498;28;20110;-70
2022/01/08 04:55:19;;;;;;;29.08;11.02;;;-4.40;69.30;;;;;;5053392;28;20396;-69
2022/01/08 04:57:46;;;;;;;27.92;12.45;;;-4.40;69.20;;;;;;5037598;28;20037;-69
2022/01/08 05:00:27;;;;;;;29.40;12.80;;;-4.40;69.10;;;;;;5049949;28;20064;-70
2022/01/08 05:02:59;;;;;;;29.45;10.65;;;-4.40;69.20;;;;;;5049553;28;20033;-69
2022/01/08 05:05:46;;;;;;;24.35;11.30;;;-4.40;69.10;;;;;;5053561;28;20138;-70
2022/01/08 05:08:12;;;;;;;27.38;11.50;;;-4.40;69.20;;;;;;5052087;28;20058;-70
2022/01/08 05:10:38;;;;;;;31.20;11.82;;;-4.50;68.60;;;;;;5068327;28;20426;-70
2022/01/08 05:13:09;;;;;;;;;;;-4.50;69.10;;;;;;5053680;28;20032;-69
2022/01/08 05:15:38;;;;;;;17.10;8.73;;;-4.50;69.00;;;;;;5051782;28;20071;-70
2022/01/08 05:18:07;;;;;;;20.10;9.43;;;-4.50;69.10;;;;;;5052210;28;20024;-69
2022/01/08 05:20:36;;;;;;;20.33;9.88;;;-4.50;69.10;;;;;;5051893;28;20553;-70
2022/01/08 05:23:14;;;;;;;22.60;9.52;;;-4.50;69.00;;;;;;5053661;28;20032;-69
2022/01/08 05:25:40;;;;;;;17.52;7.07;;;-4.50;69.10;;;;;;5064970;28;20044;-69
2022/01/08 05:28:35;;;;;;;19.67;8.65;;;-4.50;69.00;;;;;;5065665;28;20029;-68
2022/01/08 05:31:27;;;;;;;23.80;8.95;;;-4.60;68.80;;;;;;5061606;28;20110;-70
2022/01/08 05:33:53;;;;;;;25.42;10.88;;;-4.70;69.00;;;;;;5061648;28;20124;-70
2022/01/08 05:36:24;;;;;;;24.13;8.90;;;-4.70;69.10;;;;;;5066915;28;20057;-70
2022/01/08 05:38:50;;;;;;;28.30;10.75;;;-4.70;68.90;;;;;;5069546;28;20113;-70
2022/01/08 05:41:25;;;;;;;29.40;10.30;;;-4.80;68.70;;;;;;5055907;28;20037;-70
2022/01/08 05:43:54;;;;;;;21.00;8.05;;;-4.90;68.70;;;;;;5064739;28;20047;-69
2022/01/08 05:46:20;;;;;;;22.45;9.05;;;-5.00;68.80;;;;;;5062251;28;20052;-69
2022/01/08 05:48:48;;;;;;;17.20;7.47;;;-5.00;69.70;;;;;;5052880;28;20037;-69
2022/01/08 05:51:17;;;;;;;16.40;7.65;;;-5.00;68.80;;;;;;5066266;28;20032;-68
2022/01/08 05:53:43;;;;;;;18.80;7.43;;;-5.00;69.60;;;;;;5070421;28;20124;-70
2022/01/08 05:56:18;;;;;;;;;;;-5.00;68.60;;;;;;5055761;28;20041;-69
2022/01/08 05:58:45;;;;;;;14.15;6.90;;;-5.10;68.40;;;;;;5055952;28;20012;-70
2022/01/08 06:01:15;;;;;;;17.02;7.25;;;-5.10;68.50;;;;;;5071550;28;20047;-70
2022/01/08 06:03:41;;;;;;;21.25;7.63;;;-5.10;68.50;;;;;;5055795;28;20055;-69
2022/01/08 06:06:26;;;;;;;20.48;8.00;;;-5.10;68.30;;;;;;5072076;28;20035;-70
2022/01/08 06:08:56;;;;;;;16.77;7.70;;;-5.10;68.20;;;;;;5055582;28;20140;-69
2022/01/08 06:11:31;;;;;;;19.75;8.07;;;-5.10;68.00;;;;;;5054583;28;20536;-70
2022/01/08 06:14:01;;;;;;;14.50;6.20;;;-5.00;68.00;;;;;;5072831;28;20036;-70
2022/01/08 06:16:34;;;;;;;20.80;8.00;;;-5.00;68.10;;;;;;5056638;28;20040;-69
2022/01/08 06:19:13;;;;;;;19.52;8.35;;;-5.00;68.00;;;;;;5058613;28;20051;-70
2022/01/08 06:21:50;;;;;;;18.08;8.10;;;-5.00;67.90;;;;;;5070140;28;20033;-70
2022/01/08 06:24:17;;;;;;;16.17;7.60;;;-4.90;68.00;;;;;;5067828;28;20111;-70
2022/01/08 06:26:43;;;;;;;15.60;7.82;;;-4.90;68.10;;;;;;5061911;28;20045;-70
2022/01/08 06:29:09;;;;;;;19.15;7.45;;;-4.90;68.00;;;;;;5071282;28;20298;-70
2022/01/08 06:31:38;;;;;;;;;;;-4.90;68.00;;;;;;5067706;28;20116;-68
2022/01/08 06:34:11;;;;;;;21.35;8.95;;;-4.90;67.80;;;;;;5060339;28;19974;-69
2022/01/08 06:36:43;;;;;;;24.50;10.48;;;-4.90;67.80;;;;;;5071141;28;20105;-68
2022/01/08 06:39:12;;;;;;;21.70;10.55;;;-4.90;68.00;;;;;;5065240;28;20138;-69
2022/01/08 06:41:47;;;;;;;28.52;14.02;;;-4.90;68.00;;;;;;5064320;28;20420;-68
2022/01/08 06:44:14;;;;;;;78.05;28.70;;;-4.80;67.90;;;;;;5061970;28;20405;-69
2022/01/08 06:46:51;;;;;;;44.80;19.02;;;-4.80;67.80;;;;;;5055976;28;20040;-69
2022/01/08 06:49:20;;;;;;;51.80;23.63;;;-4.80;67.80;;;;;;5065638;28;20043;-69
2022/01/08 06:51:48;;;;;;;44.80;20.15;;;-4.70;68.00;;;;;;5073513;28;20501;-70
2022/01/08 06:54:40;;;;;;;34.20;16.42;;;-4.70;67.40;;;;;;5061075;28;20460;-71
2022/01/08 06:57:27;;;;;;;33.33;15.45;;;-4.70;68.00;;;;;;5055842;28;20123;-70
2022/01/08 07:00:04;;;;;;;46.30;22.83;;;-4.70;67.90;;;;;;5069919;28;20048;-70
2022/01/08 07:02:32;;;;;;;37.65;16.50;;;-4.60;67.70;;;;;;5055805;28;20043;-70
2022/01/08 07:04:58;;;;;;;42.38;15.85;;;-4.50;67.70;;;;;;5054511;28;20036;-70
2022/01/08 07:07:33;;;;;;;;;;;-4.50;67.80;;;;;;5054503;28;20039;-69
2022/01/08 07:10:02;;;;;;;50.70;20.13;;;-4.40;67.70;;;;;;5056799;28;19928;-68
2022/01/08 07:12:43;;;;;;;32.38;15.00;;;-4.30;67.60;;;;;;5070618;28;20112;-68
2022/01/08 07:15:12;;;;;;;44.72;18.52;;;-4.20;67.40;;;;;;5072460;28;20037;-69
2022/01/08 07:17:47;;;;;;;32.50;12.98;;;-4.10;66.70;;;;;;5067827;28;20037;-69
2022/01/08 07:20:48;;;;;;;52.88;21.38;;;-4.00;67.10;;;;;;5062982;28;20524;-70
2022/01/08 07:23:14;;;;;;;57.60;25.02;;;-3.80;66.80;;;;;;5058877;28;20047;-69
2022/01/08 07:25:40;;;;;;;;;;;-3.80;66.80;;;;;;5055895;28;20041;-69
2022/01/08 07:28:20;;;;;;;53.10;21.73;;;-3.70;66.80;;;;;;5055161;28;19974;-69
2022/01/08 07:30:48;;;;;;;50.38;20.42;;;-3.50;66.50;;;;;;5055415;28;20397;-69
2022/01/08 07:33:18;;;;;;;39.67;17.63;;;-3.40;66.50;;;;;;5066594;28;20060;-69
2022/01/08 07:35:44;;;;;;;50.42;22.70;;;-3.30;66.60;;;;;;5053369;28;20121;-69
2022/01/08 07:38:26;;;;;;;64.25;25.55;;;-3.20;66.40;;;;;;5056811;28;20037;-70
2022/01/08 07:40:53;;;;;;;72.88;29.95;;;-3.00;66.10;;;;;;5069785;28;21145;-70
2022/01/08 07:43:27;;;;;;;92.20;36.35;;;-2.90;66.20;;;;;;5070155;28;20036;-70
2022/01/08 07:45:58;;;;;;;78.70;35.70;;;-2.80;66.00;;;;;;5052666;28;20065;-69
2022/01/08 07:48:29;;;;;;;;;;;-2.70;66.10;;;;;;5054135;28;20083;-70
2022/01/08 07:50:58;;;;;;;36.22;17.13;;;-2.60;66.00;;;;;;5053747;28;19917;-69
2022/01/08 07:53:50;;;;;;;35.95;16.80;;;-2.50;66.00;;;;;;5054834;28;20389;-70
2022/01/08 07:56:37;;;;;;;38.63;20.30;;;-2.40;66.00;;;;;;5054975;28;20044;-70
2022/01/08 07:59:24;;;;;;;40.22;17.38;;;-2.20;65.70;;;;;;5043686;28;20040;-69
2022/01/08 08:01:53;;;;;;;34.70;18.77;;;-2.10;65.40;;;;;;5063524;28;20045;-70
2022/01/08 08:04:26;;;;;;;38.20;20.00;;;-2.00;65.50;;;;;;5054499;28;20124;-70
2022/01/08 08:06:52;;;;;;;38.17;17.23;;;-1.80;65.40;;;;;;5060883;28;20032;-69
2022/01/08 08:09:19;;;;;;;32.83;14.77;;;-1.70;65.40;;;;;;5061872;28;20558;-69
2022/01/08 08:11:53;;;;;;;28.58;13.98;;;-1.60;65.10;;;;;;5040550;28;20441;-68
2022/01/08 08:14:31;;;;;;;36.05;15.55;;;-1.30;65.10;;;;;;5060733;28;20454;-70
2022/01/08 08:17:05;;;;;;;29.52;12.50;;;-1.20;64.80;;;;;;5068130;28;20049;-69
2022/01/08 08:19:39;;;;;;;25.48;12.75;;;-1.00;64.30;;;;;;5066148;28;20041;-70
2022/01/08 08:22:08;;;;;;;24.85;10.30;;;-0.70;64.30;;;;;;5054943;28;20056;-70
2022/01/08 08:24:34;;;;;;;27.83;12.18;;;-0.50;63.90;;;;;;5067898;28;20579;-70
2022/01/08 08:27:08;;;;;;;26.08;11.15;;;-0.40;63.60;;;;;;5071874;28;20493;-69
2022/01/08 08:29:35;;;;;;;22.67;10.57;;;-0.30;63.60;;;;;;5069948;28;20040;-69
2022/01/08 08:32:06;;;;;;;21.52;9.15;;;-0.10;63.60;;;;;;5071291;28;20070;-69
2022/01/08 08:34:37;;;;;;;22.27;10.07;;;0.10;63.40;;;;;;5054264;28;20041;-70
2022/01/08 08:37:35;;;;;;;17.77;7.50;;;0.20;63.20;;;;;;5051814;28;20052;-69
2022/01/08 08:40:13;;;;;;;16.30;7.88;;;0.40;62.90;;;;;;5054035;28;20448;-69
2022/01/08 08:42:42;;;;;;;27.85;9.15;;;0.40;62.90;;;;;;5063621;28;20094;-69
2022/01/08 08:45:19;;;;;;;19.80;9.18;;;0.40;62.50;;;;;;5052570;28;20029;-71
2022/01/08 08:48:12;;;;;;;20.80;8.80;;;0.60;63.00;;;;;;5052441;28;20512;-72
2022/01/08 08:51:08;;;;;;;14.75;6.43;;;0.60;62.90;;;;;;5061967;28;20039;-72
2022/01/08 08:53:44;;;;;;;15.20;7.35;;;0.70;63.10;;;;;;5057340;28;20051;-72
2022/01/08 08:56:12;;;;;;;16.48;6.97;;;0.80;63.00;;;;;;5053406;28;20059;-72
2022/01/08 08:58:39;;;;;;;17.70;7.78;;;1.00;62.70;;;;;;5065778;28;20395;-72
2022/01/08 09:01:27;;;;;;;22.75;8.73;;;1.10;62.20;;;;;;5054271;28;20117;-69
2022/01/08 09:03:54;;;;;;;15.73;7.97;;;1.20;61.90;;;;;;5033978;28;20037;-69
2022/01/08 09:06:26;;;;;;;18.52;7.88;;;1.40;61.60;;;;;;5052421;28;20040;-70
2022/01/08 09:08:59;;;;;;;21.35;8.73;;;1.40;61.80;;;;;;5070311;28;20497;-72
2022/01/08 09:11:28;;;;;;;18.30;8.27;;;1.40;61.50;;;;;;5050995;28;20466;-72
2022/01/08 09:13:57;;;;;;;16.13;7.63;;;1.40;61.60;;;;;;5051500;28;20441;-70
2022/01/08 09:16:27;;;;;;;18.92;8.52;;;1.40;61.90;;;;;;5066699;28;20652;-71
2022/01/08 09:18:57;;;;;;;19.70;8.60;;;1.40;61.70;;;;;;5066465;28;20535;-71
2022/01/08 09:21:46;;;;;;;26.15;12.25;;;1.50;61.80;;;;;;5068055;28;20047;-71
2022/01/08 09:24:26;;;;;;;27.40;12.82;;;1.50;60.90;;;;;;5033966;28;20025;-71
2022/01/08 09:27:05;;;;;;;27.90;13.32;;;1.50;61.20;;;;;;5046716;28;20133;-72
2022/01/08 09:29:54;;;;;;;30.00;15.65;;;1.70;61.10;;;;;;5025347;28;20033;-71
2022/01/08 09:32:23;;;;;;;24.98;13.10;;;2.00;60.40;;;;;;5051988;28;20044;-70
2022/01/08 09:34:51;;;;;;;25.20;11.75;;;2.20;60.00;;;;;;5067601;28;20048;-69
2022/01/08 09:37:25;;;;;;;22.48;13.00;;;2.20;59.50;;;;;;5067609;28;20048;-70
2022/01/08 09:40:08;;;;;;;26.15;12.63;;;2.30;59.60;;;;;;5065869;28;20063;-71
2022/01/08 09:42:54;;;;;;;24.33;12.00;;;2.30;59.30;;;;;;5043536;28;20082;-72
2022/01/08 09:45:21;;;;;;;;;;;2.30;59.70;;;;;;5069206;28;20039;-70
2022/01/08 09:47:52;;;;;;;22.88;11.32;;;2.30;60.10;;;;;;5070065;28;19920;-70
2022/01/08 09:50:39;;;;;;;31.63;12.82;;;2.30;59.80;;;;;;5051574;28;20037;-71
2022/01/08 09:53:05;;;;;;;31.87;12.40;;;2.30;59.70;;;;;;5052758;28;20037;-70
2022/01/08 09:55:38;;;;;;;25.67;12.63;;;2.30;59.60;;;;;;5036438;28;20491;-71
2022/01/08 09:58:16;;;;;;;29.30;11.52;;;2.30;59.50;;;;;;5065202;28;20037;-72
2022/01/08 10:00:45;;;;;;;;;;;2.40;59.60;;;;;;5058431;28;20447;-72
2022/01/08 10:03:33;;;;;;;25.08;12.80;;;2.40;59.60;;;;;;5070562;28;19913;-71
2022/01/08 10:06:07;;;;;;;21.88;11.52;;;2.40;59.20;;;;;;5049959;28;20052;-70
2022/01/08 10:08:37;;;;;;;26.35;12.35;;;2.50;58.70;;;;;;5050053;28;20033;-72
2022/01/08 10:11:07;;;;;;;25.75;11.40;;;2.50;59.10;;;;;;5051329;28;20545;-70
2022/01/08 10:13:43;;;;;;;25.65;12.35;;;2.60;58.90;;;;;;5051481;28;20575;-69
2022/01/08 10:19:34;;;;;;;30.83;13.27;;;2.70;58.60;;;;;;5050407;28;20520;-71
2022/01/08 10:22:17;;;;;;;30.73;15.75;;;3.10;58.40;;;;;;5051575;28;20048;-70
2022/01/08 10:25:26;;;;;;;30.98;15.25;;;3.20;58.00;;;;;;5051475;28;20056;-71
2022/01/08 10:27:57;;;;;;;35.88;16.88;;;3.20;57.60;;;;;;5058791;28;20041;-70
2022/01/08 10:30:42;;;;;;;32.85;15.70;;;3.30;57.70;;;;;;5061297;28;20320;-70
2022/01/08 10:33:09;;;;;;;29.17;16.27;;;3.40;57.60;;;;;;5052389;28;20037;-72
2022/01/08 10:35:54;;;;;;;26.42;13.63;;;3.50;57.20;;;;;;5060439;28;20060;-69
2022/01/08 10:38:35;;;;;;;29.38;15.05;;;3.70;57.00;;;;;;5050300;28;20037;-70
2022/01/08 10:41:26;;;;;;;34.17;16.75;;;3.70;57.00;;;;;;5052274;28;20553;-72
2022/01/08 10:44:35;;;;;;;40.53;20.30;;;3.70;56.80;;;;;;5054600;28;20087;-72
2022/01/08 10:47:22;;;;;;;33.55;19.05;;;3.80;56.80;;;;;;5064448;28;20536;-70
2022/01/08 10:50:07;;;;;;;53.15;23.55;;;4.00;56.60;;;;;;5054617;28;20456;-70
2022/01/08 10:53:15;;;;;;;42.50;20.90;;;4.10;56.00;;;;;;5064924;28;20500;-70
2022/01/08 10:56:35;;;;;;;41.47;19.88;;;4.30;56.10;;;;;;5071418;28;20493;-69
2022/01/08 10:59:52;;;;;;;37.22;16.63;;;4.40;55.50;;;;;;5053231;28;20505;-72
2022/01/08 11:02:18;;;;;;;37.10;17.23;;;4.20;55.80;;;;;;5054717;28;20122;-71
2022/01/08 11:05:06;;;;;;;;;;;4.10;56.30;;;;;;5046648;28;20036;-72
2022/01/08 11:07:33;;;;;;;45.80;20.60;;;3.90;56.90;;;;;;5057407;28;20328;-72
2022/01/08 11:10:15;;;;;;;;;;;;;;;;;;;;;
2022/01/08 11:12:47;;;;;;;47.47;22.27;;;4.00;56.30;;;;;;5054326;28;20623;-69
2022/01/08 11:18:14;;;;;;;45.55;22.80;;;4.40;55.30;;;;;;5053310;28;20045;-70
2022/01/08 11:20:53;;;;;;;38.53;20.08;;;4.60;55.20;;;;;;5037189;28;20045;-70
2022/01/08 11:23:23;;;;;;;43.78;21.30;;;4.70;54.80;;;;;;5059347;28;20473;-72
2022/01/08 11:25:56;;;;;;;48.17;22.83;;;5.00;54.50;;;;;;5058627;28;20439;-72
2022/01/08 11:28:34;;;;;;;52.80;24.50;;;5.10;54.00;;;;;;5064004;28;20048;-72
2022/01/08 11:31:02;;;;;;;57.85;26.85;;;5.40;53.60;;;;;;5063592;28;20045;-70
2022/01/08 11:33:42;;;;;;;40.55;18.45;;;5.60;53.50;;;;;;5064809;28;20074;-70
2022/01/08 11:36:14;;;;;;;27.77;14.88;;;5.90;52.60;;;;;;5056412;28;20147;-70
2022/01/08 11:38:43;;;;;;;31.30;14.75;;;6.10;52.20;;;;;;5068385;28;20459;-70
2022/01/08 11:41:09;;;;;;;38.30;18.58;;;7.20;50.40;;;;;;5058587;28;20041;-70
2022/01/08 11:43:41;;;;;;;25.80;13.63;;;7.80;48.30;;;;;;5053261;28;20582;-70
2022/01/08 11:46:09;;;;;;;28.77;13.80;;;7.50;48.30;;;;;;5040035;28;20037;-71
2022/01/08 11:48:54;;;;;;;26.42;14.25;;;7.40;48.90;;;;;;5040570;28;20044;-70
2022/01/08 11:51:33;;;;;;;23.15;10.77;;;7.10;48.60;;;;;;5054627;28;20047;-70
2022/01/08 11:54:09;;;;;;;34.92;15.13;;;6.80;49.30;;;;;;5054867;28;20375;-70
2022/01/08 11:56:50;;;;;;;19.52;9.80;;;6.70;49.40;;;;;;5053332;28;20497;-70
2022/01/08 11:59:24;;;;;;;20.60;11.15;;;6.70;48.60;;;;;;5071628;28;20040;-72
2022/01/08 12:02:15;;;;;;;17.63;8.63;;;7.00;47.30;;;;;;5066194;28;20071;-72
2022/01/08 12:05:01;;;;;;;21.00;9.98;;;7.00;47.30;;;;;;5061966;28;20068;-72
2022/01/08 12:07:52;;;;;;;18.75;9.70;;;6.80;47.60;;;;;;5052883;28;20493;-71
2022/01/08 12:10:32;;;;;;;19.52;9.15;;;6.60;47.70;;;;;;5052905;28;20390;-70
2022/01/08 12:13:02;;;;;;;18.25;9.32;;;6.60;47.70;;;;;;5062641;28;20482;-70
2022/01/08 12:15:45;;;;;;;18.42;8.32;;;6.70;47.50;;;;;;5039576;28;20392;-72
2022/01/08 12:18:17;;;;;;;14.52;8.00;;;6.50;48.10;;;;;;5053017;28;20077;-70
2022/01/08 12:21:02;;;;;;;23.60;11.30;;;6.20;48.30;;;;;;5052592;28;20041;-72
2022/01/08 12:23:48;;;;;;;16.10;7.35;;;6.20;47.60;;;;;;5051529;28;20044;-70
2022/01/08 12:27:10;;;;;;;18.40;7.30;;;6.40;47.30;;;;;;5070426;28;20481;-72
2022/01/08 12:29:55;;;;;;;25.35;7.40;;;6.30;47.20;;;;;;5052405;28;20815;-72
2022/01/08 12:32:45;;;;;;;20.73;7.43;;;6.20;47.50;;;;;;5053554;28;20056;-72
2022/01/08 12:35:37;;;;;;;36.00;14.43;;;6.20;47.30;;;;;;5053679;28;20052;-70
2022/01/08 12:38:07;;;;;;;21.42;9.85;;;6.30;47.10;;;;;;5059155;28;20512;-72
2022/01/08 12:40:53;;;;;;;16.85;7.38;;;6.80;46.20;;;;;;5053174;28;20056;-72
2022/01/08 12:43:47;;;;;;;13.88;5.53;;;7.10;45.20;;;;;;5052843;28;20115;-72
2022/01/08 12:46:39;;;;;;;17.48;6.80;;;7.10;44.80;;;;;;5065517;28;20041;-70
2022/01/08 12:49:24;;;;;;;12.07;5.63;;;6.90;44.40;;;;;;5052120;28;20048;-72
2022/01/08 12:51:50;;;;;;;10.77;5.88;;;7.10;44.90;;;;;;5062113;28;20042;-72
2022/01/08 12:54:23;;;;;;;16.73;8.70;;;7.80;44.20;;;;;;5060080;28;20033;-72
2022/01/08 12:56:53;;;;;;;22.10;9.80;;;8.00;42.10;;;;;;5058226;28;20646;-72
2022/01/08 12:59:43;;;;;;;14.02;6.75;;;7.60;42.90;;;;;;5056546;28;20087;-72
2022/01/08 13:02:25;;;;;;;17.80;8.13;;;7.10;43.60;;;;;;5050257;28;20047;-73
2022/01/08 13:04:54;;;;;;;17.80;7.88;;;7.00;44.50;;;;;;5052555;28;20428;-70
2022/01/08 13:07:30;;;;;;;16.95;8.25;;;7.20;44.00;;;;;;5051494;28;20033;-72
2022/01/08 13:10:00;;;;;;;14.90;7.83;;;7.40;43.60;;;;;;5051722;28;20041;-70
2022/01/08 13:12:26;;;;;;;15.68;6.47;;;7.40;43.40;;;;;;5067156;28;20446;-72
2022/01/08 13:15:14;;;;;;;15.00;7.63;;;7.40;43.50;;;;;;5053600;28;20435;-72
2022/01/08 13:18:14;;;;;;;13.80;7.85;;;7.30;42.30;;;;;;5051388;28;20441;-70
2022/01/08 13:20:44;;;;;;;20.02;8.27;;;7.00;43.70;;;;;;5051578;28;20493;-72
2022/01/08 13:23:54;;;;;;;21.13;7.60;;;7.00;43.90;;;;;;5041817;28;20117;-72
2022/01/08 13:26:43;;;;;;;15.93;7.13;;;7.50;43.20;;;;;;5055524;28;20048;-71
2022/01/08 13:29:48;;;;;;;15.32;6.72;;;7.90;42.30;;;;;;5049821;28;20043;-73
2022/01/08 13:32:24;;;;;;;12.00;5.55;;;7.80;40.90;;;;;;5050416;28;20422;-70
2022/01/08 13:34:56;;;;;;;13.07;6.88;;;7.60;40.70;;;;;;5055116;28;20047;-70
2022/01/08 13:37:45;;;;;;;21.45;7.68;;;7.60;41.00;;;;;;5066711;28;20132;-72
2022/01/08 13:40:14;;;;;;;18.75;9.07;;;7.70;41.20;;;;;;5052326;28;20040;-72
2022/01/08 13:43:07;;;;;;;16.73;7.47;;;7.60;41.40;;;;;;5059640;28;20027;-72
2022/01/08 13:45:45;;;;;;;20.27;8.18;;;8.00;40.60;;;;;;5051342;28;20049;-72
2022/01/08 13:48:18;;;;;;;22.45;10.65;;;8.40;40.10;;;;;;5051512;28;20501;-70
2022/01/08 13:51:06;;;;;;;22.10;11.88;;;9.00;39.50;;;;;;5052458;28;20049;-70
2022/01/08 13:53:33;;;;;;;14.13;7.57;;;9.60;38.30;;;;;;5059504;28;20102;-71
2022/01/08 13:56:00;;;;;;;15.02;6.93;;;10.20;37.70;;;;;;5050853;28;20037;-70
2022/01/08 13:58:48;;;;;;;18.05;10.05;;;10.20;36.80;;;;;;5051387;28;20055;-70